createdAt,value
2018-07-20T00:02:06.355Z,61.88
2018-07-20T00:04:34.751Z,62.02
2018-07-20T00:07:03.134Z,62.06
2018-07-20T00:09:31.628Z,62.45
2018-07-20T00:11:59.994Z,62.08
2018-07-20T00:14:28.379Z,62.43
2018-07-20T00:16:56.775Z,61.67
2018-07-20T00:19:25.173Z,61.95
2018-07-20T00:21:53.546Z,61.83
2018-07-20T00:24:21.928Z,62.11
2018-07-20T00:26:50.347Z,62.21
2018-07-20T00:29:18.710Z,62.92
2018-07-20T00:31:47.106Z,62.60
2018-07-20T00:34:15.470Z,63.03
2018-07-20T00:36:43.875Z,62.54
2018-07-20T00:39:12.283Z,62.38
2018-07-20T00:41:41.011Z,63.40
2018-07-20T00:44:09.387Z,63.20
2018-07-20T00:46:37.782Z,63.56
2018-07-20T00:49:06.342Z,64.25
2018-07-20T00:51:34.746Z,64.34
2018-07-20T00:54:03.118Z,64.20
2018-07-20T00:56:31.518Z,63.41
2018-07-20T00:58:59.886Z,63.89
2018-07-20T01:01:28.274Z,63.38
2018-07-20T01:03:56.662Z,63.82
2018-07-20T01:06:25.066Z,64.43
2018-07-20T01:08:53.430Z,64.39
2018-07-20T01:11:21.823Z,64.12
2018-07-20T01:13:50.191Z,64.03
2018-07-20T01:16:18.646Z,64.48
2018-07-20T01:18:47.018Z,64.27
2018-07-20T01:21:15.411Z,64.63
2018-07-20T01:23:43.771Z,64.54
2018-07-20T01:26:12.179Z,64.12
2018-07-20T01:28:40.548Z,63.92
2018-07-20T01:31:09.146Z,64.53
2018-07-20T01:33:37.514Z,64.76
2018-07-20T01:36:05.894Z,64.70
2018-07-20T01:38:34.302Z,64.42
2018-07-20T01:41:02.690Z,64.68
2018-07-20T01:43:31.062Z,64.16
2018-07-20T01:45:59.446Z,65.15
2018-07-20T01:48:27.826Z,64.92
2018-07-20T01:50:56.222Z,65.90
2018-07-20T01:53:24.590Z,65.27
2018-07-20T01:55:52.977Z,65.70
2018-07-20T01:58:21.338Z,65.87
2018-07-20T02:00:49.726Z,65.75
2018-07-20T02:03:18.094Z,65.27
2018-07-20T02:05:46.494Z,65.64
2018-07-20T02:08:14.870Z,65.52
2018-07-20T02:10:43.335Z,65.90
2018-07-20T02:13:11.702Z,66.34
2018-07-20T02:15:40.118Z,67.04
2018-07-20T02:18:08.502Z,67.27
2018-07-20T02:20:36.882Z,67.43
2018-07-20T02:23:05.286Z,66.76
2018-07-20T02:25:33.661Z,66.97
2018-07-20T02:28:02.066Z,67.95
2018-07-20T02:30:30.442Z,67.71
2018-07-20T02:32:58.835Z,67.39
2018-07-20T02:35:27.212Z,67.80
2018-07-20T02:37:55.616Z,67.80
2018-07-20T02:40:24.005Z,67.94
2018-07-20T02:42:52.610Z,68.09
2018-07-20T02:45:20.990Z,67.88
2018-07-20T02:47:49.386Z,67.83
2018-07-20T02:50:17.771Z,68.16
2018-07-20T02:52:46.171Z,68.16
2018-07-20T02:55:14.547Z,68.04
2018-07-20T02:57:42.959Z,68.26
2018-07-20T03:00:11.342Z,68.83
2018-07-20T03:02:39.741Z,68.99
2018-07-20T03:05:08.114Z,68.65
2018-07-20T03:07:36.510Z,68.77
2018-07-20T03:10:05.298Z,69.50
2018-07-20T03:12:33.695Z,69.30
2018-07-20T03:15:02.072Z,69.52
2018-07-20T03:17:30.522Z,69.79
2018-07-20T03:19:58.986Z,69.60
2018-07-20T03:22:27.402Z,69.65
2018-07-20T03:24:55.785Z,70.20
2018-07-20T03:27:24.195Z,69.57
2018-07-20T03:29:52.571Z,69.58
2018-07-20T03:32:22.661Z,69.88
2018-07-20T03:34:51.042Z,69.93
2018-07-20T03:37:19.442Z,70.62
2018-07-20T03:39:47.806Z,71.04
2018-07-20T03:42:16.210Z,71.20
2018-07-20T03:44:44.582Z,71.10
2018-07-20T03:47:13.134Z,70.69
2018-07-20T03:49:41.506Z,71.03
2018-07-20T03:52:09.934Z,70.97
2018-07-20T03:54:38.301Z,70.97
2018-07-20T03:57:06.754Z,71.13
2018-07-20T03:59:35.130Z,71.79
2018-07-20T04:02:03.545Z,72.16
2018-07-20T04:04:31.912Z,71.24
2018-07-20T04:07:00.305Z,71.41
2018-07-20T04:09:28.678Z,71.37
2018-07-20T04:11:57.078Z,71.43
2018-07-20T04:14:25.605Z,71.36
2018-07-20T04:16:54.034Z,70.66
2018-07-20T04:19:22.423Z,70.58
2018-07-20T04:21:50.790Z,70.96
2018-07-20T04:24:19.200Z,69.84
2018-07-20T04:26:47.574Z,68.26
2018-07-20T04:29:16.094Z,67.18
2018-07-20T04:31:44.570Z,66.73
2018-07-20T04:34:12.970Z,65.59
2018-07-20T04:36:41.338Z,65.62
2018-07-20T04:39:11.662Z,63.95
2018-07-20T04:41:40.509Z,63.34
2018-07-20T04:44:08.919Z,63.00
2018-07-20T04:46:37.386Z,62.39
2018-07-20T04:49:05.802Z,61.35
2018-07-20T04:51:34.350Z,62.15
2018-07-20T04:54:03.058Z,62.20
2018-07-20T04:56:31.433Z,61.68
2018-07-20T04:58:59.830Z,61.33
2018-07-20T05:01:29.682Z,61.46
2018-07-20T05:03:58.079Z,62.34
2018-07-20T05:06:26.463Z,62.33
2018-07-20T05:08:54.845Z,61.47
2018-07-20T05:11:23.244Z,63.34
2018-07-20T05:13:51.630Z,62.40
2018-07-20T05:16:20.570Z,62.20
2018-07-20T05:18:48.975Z,62.81
2018-07-20T05:21:17.466Z,62.42
2018-07-20T05:23:45.862Z,63.20
2018-07-20T05:26:14.229Z,63.29
2018-07-20T05:28:42.618Z,64.03
2018-07-20T05:31:11.000Z,64.22
2018-07-20T05:33:39.398Z,64.38
2018-07-20T05:36:07.782Z,64.20
2018-07-20T05:38:36.177Z,64.37
2018-07-20T05:41:04.746Z,64.89
2018-07-20T05:43:33.139Z,65.06
2018-07-20T05:46:01.506Z,65.20
2018-07-20T05:48:29.899Z,64.82
2018-07-20T05:50:58.278Z,65.15
2018-07-20T05:53:26.709Z,65.02
2018-07-20T05:55:55.074Z,64.96
2018-07-20T05:58:23.467Z,64.14
2018-07-20T06:00:51.837Z,64.81
2018-07-20T06:03:20.240Z,64.77
2018-07-20T06:05:48.602Z,64.20
2018-07-20T06:08:16.995Z,63.50
2018-07-20T06:10:45.367Z,64.08
2018-07-20T06:13:13.761Z,62.67
2018-07-20T06:15:42.155Z,63.10
2018-07-20T06:18:10.554Z,62.34
2018-07-20T06:20:38.926Z,62.30
2018-07-20T06:23:07.328Z,62.86
2018-07-20T06:25:35.702Z,61.63
2018-07-20T06:28:04.070Z,61.80
2018-07-20T06:30:32.575Z,61.41
2018-07-20T06:33:00.953Z,61.82
2018-07-20T06:35:29.341Z,61.23
2018-07-20T06:37:57.714Z,60.65
2018-07-20T06:40:26.130Z,60.93
2018-07-20T06:42:54.794Z,60.82
2018-07-20T06:45:23.226Z,60.54
2018-07-20T06:47:51.782Z,60.73
2018-07-20T06:50:20.217Z,59.82
2018-07-20T06:52:49.027Z,59.23
2018-07-20T06:55:17.432Z,59.59
2018-07-20T06:57:46.015Z,58.80
2018-07-20T07:00:14.417Z,58.54
2018-07-20T07:02:42.786Z,58.14
2018-07-20T07:05:11.675Z,57.68
2018-07-20T07:07:40.050Z,56.67
2018-07-20T07:10:09.039Z,55.26
2018-07-20T07:12:37.417Z,53.53
2018-07-20T07:15:06.446Z,52.68
2018-07-20T07:17:34.830Z,52.45
2018-07-20T07:20:03.242Z,50.50
2018-07-20T07:22:31.618Z,49.40
2018-07-20T07:25:00.010Z,49.50
2018-07-20T07:27:28.377Z,49.02
2018-07-20T07:29:56.789Z,47.09
2018-07-20T07:32:25.158Z,48.45
2018-07-20T07:34:53.557Z,47.70
2018-07-20T07:37:21.935Z,48.16
2018-07-20T07:39:50.325Z,47.74
2018-07-20T07:42:18.777Z,46.47
2018-07-20T07:44:47.101Z,46.16
2018-07-20T07:47:15.462Z,47.16
2018-07-20T07:49:43.857Z,47.80
2018-07-20T07:52:12.221Z,46.47
2018-07-20T07:54:40.663Z,47.14
2018-07-20T07:57:09.027Z,46.94
2018-07-20T07:59:37.418Z,47.40
2018-07-20T08:02:06.038Z,46.17
2018-07-20T08:04:34.457Z,45.47
2018-07-20T08:07:02.823Z,46.95
2018-07-20T08:09:31.214Z,46.49
2018-07-20T08:11:59.591Z,47.12
2018-07-20T08:14:27.990Z,46.58
2018-07-20T08:16:56.386Z,44.09
2018-07-20T08:19:24.783Z,43.78
2018-07-20T08:21:53.154Z,42.76
2018-07-20T08:24:21.530Z,42.88
2018-07-20T08:26:49.984Z,44.01
2018-07-20T08:29:18.362Z,43.71
2018-07-20T08:31:46.750Z,42.74
2018-07-20T08:34:15.130Z,41.80
2018-07-20T08:36:43.525Z,41.68
2018-07-20T08:39:11.918Z,43.19
2018-07-20T08:41:40.343Z,41.74
2018-07-20T08:44:08.737Z,42.36
2018-07-20T08:46:37.187Z,40.37
2018-07-20T08:49:05.555Z,39.83
2018-07-20T08:51:33.941Z,38.13
2018-07-20T08:54:02.369Z,38.08
2018-07-20T08:56:30.778Z,39.72
2018-07-20T08:58:59.183Z,39.38
2018-07-20T09:01:27.602Z,40.10
2018-07-20T09:03:55.978Z,39.83
2018-07-20T09:06:24.374Z,39.74
2018-07-20T09:08:52.745Z,39.92
2018-07-20T09:11:21.142Z,39.71
2018-07-20T09:13:49.628Z,40.36
2018-07-20T09:16:18.626Z,40.03
2018-07-20T09:18:47.186Z,40.94
2018-07-20T09:21:15.578Z,39.84
2018-07-20T09:23:43.951Z,40.96
2018-07-20T09:26:12.338Z,39.97
2018-07-20T09:28:40.794Z,40.22
2018-07-20T09:31:09.183Z,39.15
2018-07-20T09:33:37.558Z,38.74
2018-07-20T09:36:05.957Z,40.12
2018-07-20T09:38:34.321Z,38.94
2018-07-20T09:41:02.799Z,39.19
2018-07-20T09:43:31.199Z,38.35
2018-07-20T09:45:59.588Z,39.00
2018-07-20T09:48:27.958Z,38.41
2018-07-20T09:50:56.347Z,38.96
2018-07-20T09:53:24.714Z,38.33
2018-07-20T09:55:53.131Z,37.75
2018-07-20T09:58:21.556Z,37.49
2018-07-20T10:00:50.885Z,37.58
2018-07-20T10:03:20.162Z,36.96
2018-07-20T10:05:48.878Z,38.43
2018-07-20T10:08:18.254Z,37.73
2018-07-20T10:10:46.858Z,36.49
2018-07-20T10:13:15.262Z,37.51
2018-07-20T10:15:43.676Z,37.13
2018-07-20T10:18:12.050Z,37.03
2018-07-20T10:20:40.466Z,37.39
2018-07-20T10:23:08.834Z,37.54
2018-07-20T10:25:37.218Z,37.12
2018-07-20T10:28:05.632Z,36.55
2018-07-20T10:30:34.065Z,36.70
2018-07-20T10:33:02.443Z,36.48
2018-07-20T10:35:30.827Z,37.12
2018-07-20T10:37:59.226Z,35.16
2018-07-20T10:40:28.320Z,34.95
2018-07-20T10:42:58.254Z,35.54
2018-07-20T10:45:27.010Z,35.37
2018-07-20T10:47:55.722Z,35.67
2018-07-20T10:50:24.099Z,34.49
2018-07-20T10:52:52.493Z,34.01
2018-07-20T10:55:20.905Z,35.01
2018-07-20T10:57:49.446Z,35.24
2018-07-20T11:00:17.833Z,34.78
2018-07-20T11:02:46.513Z,34.13
2018-07-20T11:05:14.942Z,35.27
2018-07-20T11:07:43.362Z,35.23
2018-07-20T11:10:11.764Z,35.26
2018-07-20T11:12:40.172Z,35.63
2018-07-20T11:15:08.550Z,35.47
2018-07-20T11:17:36.961Z,35.25
2018-07-20T11:20:06.081Z,34.28
2018-07-20T11:22:34.469Z,33.41
2018-07-20T11:25:02.857Z,34.37
2018-07-20T11:27:31.282Z,33.60
2018-07-20T11:29:59.656Z,34.10
2018-07-20T11:32:28.050Z,33.82
2018-07-20T11:34:56.440Z,34.42
2018-07-20T11:37:24.841Z,33.92
2018-07-20T11:39:53.201Z,33.62
2018-07-20T11:42:21.814Z,34.76
2018-07-20T11:44:50.182Z,33.27
2018-07-20T11:47:18.574Z,33.86
2018-07-20T11:49:46.942Z,32.83
2018-07-20T11:52:15.335Z,33.41
2018-07-20T11:54:43.706Z,31.35
2018-07-20T11:57:12.099Z,32.24
2018-07-20T11:59:40.526Z,33.25
2018-07-20T12:02:08.933Z,32.45
2018-07-20T12:04:37.385Z,31.86
2018-07-20T12:07:05.774Z,31.71
2018-07-20T12:09:34.145Z,32.20
2018-07-20T12:12:02.559Z,29.99
2018-07-20T12:14:30.929Z,29.94
2018-07-20T12:16:59.353Z,29.50
2018-07-20T12:19:27.732Z,30.83
2018-07-20T12:21:56.146Z,31.82
2018-07-20T12:24:24.525Z,32.04
2018-07-20T12:26:52.914Z,30.82
2018-07-20T12:29:21.630Z,31.40
2018-07-20T12:31:50.002Z,31.05
2018-07-20T12:34:18.426Z,28.96
2018-07-20T12:36:46.801Z,30.06
2018-07-20T12:39:15.204Z,29.54
2018-07-20T12:41:43.698Z,29.59
2018-07-20T12:44:12.094Z,30.19
2018-07-20T12:46:40.609Z,29.79
2018-07-20T12:49:09.017Z,28.48
2018-07-20T12:51:37.410Z,29.37
2018-07-20T12:54:05.839Z,29.10
2018-07-20T12:56:34.218Z,29.61
2018-07-20T12:59:02.677Z,29.06
2018-07-20T13:01:31.027Z,29.06
2018-07-20T13:03:59.425Z,28.72
2018-07-20T13:06:27.803Z,28.89
2018-07-20T13:08:56.206Z,28.59
2018-07-20T13:11:24.587Z,27.34
2018-07-20T13:13:52.986Z,27.75
2018-07-20T13:16:21.391Z,28.17
2018-07-20T13:18:49.794Z,26.97
2018-07-20T13:21:18.172Z,26.92
2018-07-20T13:23:46.596Z,28.45
2018-07-20T13:26:14.978Z,27.62
2018-07-20T13:28:43.381Z,27.76
2018-07-20T13:31:11.753Z,27.70
2018-07-20T13:33:40.159Z,28.99
2018-07-20T13:36:08.566Z,27.78
2018-07-20T13:38:37.069Z,26.93
2018-07-20T13:41:05.443Z,26.75
2018-07-20T13:43:33.862Z,26.76
2018-07-20T13:46:02.258Z,27.22
2018-07-20T13:48:30.658Z,28.08
2018-07-20T13:50:59.034Z,28.13
2018-07-20T13:53:27.442Z,26.54
2018-07-20T13:55:55.810Z,26.23
2018-07-20T13:58:24.250Z,26.42
2018-07-20T14:00:52.610Z,26.93
2018-07-20T14:03:21.019Z,27.04
2018-07-20T14:05:49.395Z,27.86
2018-07-20T14:08:17.785Z,27.10
2018-07-20T14:10:46.206Z,26.62
2018-07-20T14:13:14.614Z,26.27
2018-07-20T14:15:43.010Z,25.39
2018-07-20T14:18:11.439Z,25.66
2018-07-20T14:20:40.189Z,24.71
2018-07-20T14:23:08.574Z,24.88
2018-07-20T14:25:36.991Z,24.98
2018-07-20T14:28:05.406Z,25.81
2018-07-20T14:30:33.814Z,24.78
2018-07-20T14:33:02.190Z,24.28
2018-07-20T14:35:30.595Z,24.28
2018-07-20T14:37:58.978Z,24.42
2018-07-20T14:40:27.413Z,23.57
2018-07-20T14:42:55.813Z,23.42
2018-07-20T14:45:24.210Z,25.06
2018-07-20T14:47:52.581Z,24.88
2018-07-20T14:50:20.986Z,23.93
2018-07-20T14:52:49.363Z,25.11
2018-07-20T14:55:17.763Z,25.40
2018-07-20T14:57:46.138Z,25.28
2018-07-20T15:00:14.551Z,25.03
2018-07-20T15:02:42.987Z,25.72
2018-07-20T15:05:11.405Z,24.71
2018-07-20T15:07:39.791Z,24.95
2018-07-20T15:10:08.198Z,25.63
2018-07-20T15:12:36.579Z,25.95
2018-07-20T15:15:05.625Z,26.33
2018-07-20T15:17:34.028Z,26.52
2018-07-20T15:20:02.423Z,25.89
2018-07-20T15:22:30.790Z,25.50
2018-07-20T15:24:59.182Z,25.56
2018-07-20T15:27:27.554Z,25.98
2018-07-20T15:29:55.937Z,25.25
2018-07-20T15:32:24.304Z,25.44
2018-07-20T15:34:52.726Z,25.82
2018-07-20T15:37:21.101Z,25.97
2018-07-20T15:39:49.502Z,27.72
2018-07-20T15:42:17.893Z,27.66
2018-07-20T15:44:46.290Z,27.78
2018-07-20T15:47:14.730Z,26.89
2018-07-20T15:49:43.090Z,27.66
2018-07-20T15:54:39.898Z,26.73
2018-07-20T15:57:08.610Z,26.71
2018-07-20T15:59:37.047Z,26.23
2018-07-20T16:02:05.881Z,26.85
2018-07-20T16:04:34.269Z,27.07
2018-07-20T16:07:02.654Z,25.56
2018-07-20T16:09:31.051Z,26.70
2018-07-20T16:11:59.438Z,26.44
2018-07-20T16:14:27.841Z,27.45
2018-07-20T16:16:56.365Z,26.77
2018-07-20T16:19:24.798Z,27.79
2018-07-20T16:21:53.170Z,27.88
2018-07-20T16:24:21.562Z,26.43
2018-07-20T16:26:49.953Z,26.81
2018-07-20T16:29:18.366Z,27.10
2018-07-20T16:31:46.785Z,26.11
2018-07-20T16:34:15.170Z,25.66
2018-07-20T16:36:43.655Z,27.22
2018-07-20T16:39:12.039Z,27.14
2018-07-20T16:41:40.430Z,26.50
2018-07-20T16:44:08.805Z,26.58
2018-07-20T16:46:37.203Z,27.71
2018-07-20T16:49:05.591Z,26.87
2018-07-20T16:51:33.985Z,28.02
2018-07-20T16:54:02.354Z,26.71
2018-07-20T16:56:30.798Z,26.64
2018-07-20T16:58:59.174Z,25.52
2018-07-20T17:01:27.710Z,26.18
2018-07-20T17:03:56.110Z,24.60
2018-07-20T17:06:24.582Z,24.62
2018-07-20T17:08:52.959Z,25.10
2018-07-20T17:11:21.378Z,24.78
2018-07-20T17:13:50.105Z,24.42
2018-07-20T17:16:18.839Z,24.92
2018-07-20T17:18:47.378Z,26.15
2018-07-20T17:21:15.855Z,26.81
2018-07-20T17:23:44.318Z,25.76
2018-07-20T17:26:12.721Z,25.41
2018-07-20T17:28:41.130Z,26.03
2018-07-20T17:31:09.526Z,26.42
2018-07-20T17:33:38.053Z,26.34
2018-07-20T17:36:06.702Z,25.56
2018-07-20T17:38:35.101Z,26.32
2018-07-20T17:41:03.858Z,26.67
2018-07-20T17:43:32.233Z,27.31
2018-07-20T17:46:00.642Z,27.58
2018-07-20T17:48:29.023Z,28.04
2018-07-20T17:50:57.418Z,27.80
2018-07-20T17:53:25.793Z,29.14
2018-07-20T17:55:54.195Z,29.04
2018-07-20T17:58:22.567Z,30.24
2018-07-20T18:00:52.966Z,28.99
2018-07-20T18:03:21.362Z,29.97
2018-07-20T18:05:49.766Z,30.33
2018-07-20T18:08:18.142Z,31.52
2018-07-20T18:10:46.707Z,31.37
2018-07-20T18:13:15.082Z,31.34
2018-07-20T18:15:43.529Z,32.21
2018-07-20T18:18:11.903Z,31.93
2018-07-20T18:20:40.278Z,32.00
2018-07-20T18:23:08.666Z,33.63
2018-07-20T18:25:37.037Z,32.89
2018-07-20T18:28:05.449Z,33.81
2018-07-20T18:30:33.829Z,33.24
2018-07-20T18:33:02.366Z,34.19
2018-07-20T18:35:30.739Z,34.81
2018-07-20T18:37:59.139Z,34.79
2018-07-20T18:40:27.529Z,34.95
2018-07-20T18:42:55.930Z,35.15
2018-07-20T18:45:24.321Z,35.43
2018-07-20T18:47:52.714Z,36.41
2018-07-20T18:50:21.092Z,36.28
2018-07-20T18:52:49.532Z,36.73
2018-07-20T18:55:17.923Z,36.99
2018-07-20T18:57:46.326Z,37.10
2018-07-20T19:00:14.699Z,38.08
2018-07-20T19:02:43.086Z,38.57
2018-07-20T19:05:11.465Z,38.49
2018-07-20T19:07:39.862Z,39.22
2018-07-20T19:10:08.256Z,38.97
2018-07-20T19:12:36.686Z,39.32
2018-07-20T19:15:05.562Z,40.11
2018-07-20T19:17:34.176Z,39.45
2018-07-20T19:20:02.595Z,40.60
2018-07-20T19:22:31.179Z,40.77
2018-07-20T19:24:59.558Z,40.26
2018-07-20T19:27:27.941Z,40.45
2018-07-20T19:29:56.319Z,40.84
2018-07-20T19:32:24.718Z,41.28
2018-07-20T19:34:53.086Z,41.56
2018-07-20T19:37:21.483Z,42.17
2018-07-20T19:39:49.935Z,42.13
2018-07-20T19:42:18.280Z,42.46
2018-07-20T19:44:46.654Z,43.80
2018-07-20T19:47:15.048Z,43.57
2018-07-20T19:49:43.456Z,45.60
2018-07-20T19:52:11.858Z,45.65
2018-07-20T19:54:40.240Z,45.95
2018-07-20T19:57:08.649Z,44.82
2018-07-20T19:59:37.023Z,45.16
2018-07-20T20:02:05.462Z,44.83
2018-07-20T20:04:33.842Z,45.31
2018-07-20T20:07:02.269Z,46.02
2018-07-20T20:09:30.643Z,46.07
2018-07-20T20:11:59.042Z,45.44
2018-07-20T20:14:27.422Z,46.60
2018-07-20T20:16:55.866Z,46.11
2018-07-20T20:19:24.247Z,46.51
2018-07-20T20:21:52.646Z,46.69
2018-07-20T20:24:21.042Z,47.35
2018-07-20T20:26:49.413Z,46.38
2018-07-20T20:29:17.842Z,47.37
2018-07-20T20:31:46.210Z,47.67
2018-07-20T20:34:14.615Z,47.14
2018-07-20T20:36:42.995Z,47.37
2018-07-20T20:39:12.876Z,48.02
2018-07-20T20:41:41.326Z,48.19
2018-07-20T20:44:10.966Z,47.58
2018-07-20T20:46:40.995Z,48.00
2018-07-20T20:49:09.448Z,48.44
2018-07-20T20:51:37.826Z,48.27
2018-07-20T20:54:06.956Z,49.11
2018-07-20T20:56:35.416Z,48.53
2018-07-20T20:59:03.920Z,48.86
2018-07-20T21:01:32.256Z,49.95
2018-07-20T21:04:00.659Z,50.52
2018-07-20T21:06:29.039Z,49.98
2018-07-20T21:08:57.443Z,50.75
2018-07-20T21:11:25.830Z,50.91
2018-07-20T21:13:54.238Z,50.44
2018-07-20T21:16:22.642Z,50.57
2018-07-20T21:18:51.049Z,51.46
2018-07-20T21:21:19.434Z,50.95
2018-07-20T21:23:47.834Z,51.83
2018-07-20T21:26:16.222Z,51.79
2018-07-20T21:28:44.626Z,52.45
2018-07-20T21:31:13.003Z,51.85
2018-07-20T21:33:41.406Z,51.63
2018-07-20T21:36:09.783Z,52.17
2018-07-20T21:38:38.194Z,52.71
2018-07-20T21:41:06.598Z,52.36
2018-07-20T21:43:34.998Z,52.63
2018-07-20T21:46:03.406Z,52.96
2018-07-20T21:48:31.802Z,52.55
2018-07-20T21:51:00.174Z,53.01
2018-07-20T21:53:28.572Z,53.06
2018-07-20T21:55:56.937Z,53.70
2018-07-20T21:58:25.330Z,52.87
2018-07-20T22:00:53.710Z,53.06
2018-07-20T22:03:22.117Z,53.58
2018-07-20T22:05:50.490Z,54.02
2018-07-20T22:08:18.914Z,54.49
2018-07-20T22:10:47.302Z,54.29
2018-07-20T22:13:15.698Z,54.81
2018-07-20T22:15:44.094Z,54.53
2018-07-20T22:18:12.527Z,55.01
2018-07-20T22:20:40.914Z,54.61
2018-07-20T22:23:09.342Z,55.03
2018-07-20T22:25:37.750Z,55.80
2018-07-20T22:28:06.130Z,55.34
2018-07-20T22:30:34.539Z,56.30
2018-07-20T22:33:02.927Z,56.19
2018-07-20T22:35:31.322Z,56.06
2018-07-20T22:37:59.706Z,55.88
2018-07-20T22:40:28.102Z,56.27
2018-07-20T22:42:56.479Z,57.53
2018-07-20T22:45:24.876Z,57.71
2018-07-20T22:47:56.190Z,57.28
2018-07-20T22:50:24.594Z,57.21
2018-07-20T22:52:52.974Z,57.96
2018-07-20T22:55:21.374Z,58.12
2018-07-20T22:57:49.751Z,58.92
2018-07-20T23:00:18.146Z,58.63
2018-07-20T23:02:46.525Z,59.13
2018-07-20T23:05:14.926Z,59.45
2018-07-20T23:07:43.298Z,59.62
2018-07-20T23:10:11.888Z,58.90
2018-07-20T23:12:40.266Z,59.77
2018-07-20T23:15:08.674Z,60.51
2018-07-20T23:17:37.074Z,60.63
2018-07-20T23:20:05.610Z,60.47
2018-07-20T23:22:33.992Z,60.41
2018-07-20T23:25:02.386Z,60.82
2018-07-20T23:27:30.762Z,60.57
2018-07-20T23:29:59.162Z,61.27
2018-07-20T23:32:27.537Z,61.54
2018-07-20T23:34:55.939Z,62.46
2018-07-20T23:37:24.357Z,63.34
2018-07-20T23:39:52.753Z,63.20
2018-07-20T23:42:21.136Z,63.29
2018-07-20T23:44:49.542Z,63.42
2018-07-20T23:47:17.925Z,63.61
2018-07-20T23:49:46.335Z,63.84
2018-07-20T23:52:14.714Z,64.79
2018-07-20T23:54:43.366Z,64.27
2018-07-20T23:57:11.738Z,64.62
2018-07-20T23:59:40.175Z,64.73
